Airfield :
LOGIN :

Register | Disclaimer

   EN    FR    IT 

 










Legend :    VFR   Marginal VFR   IFR   Intensive IFR   Very Intensive IFR
Visi :
Ceiling :
>= 8 km
>= 3000ft
5 to 8 km
1000 to 3000 ft
1500m to 5 km
500 to 1000 ft
800 to 1500m
200 to 500 ft
< 800m
< 200 ft
Symbols :   Thunderstorms  Fog  Heavy snow  Heavy precipitations  Wind > 20 kt
SIGMETs :     Misc.  Thunderstorms  Icing  Turbulence  Mountain Waves  Volcanic Ashes







- Airport Elevation : 172 ft
- IATA code : ODS


UKOO - Odesa

CURRENT METAR :
  • 190100Z 08001MPS CAVOK 00/M02 Q1025 R16/090060 NOSIG

EXPIRED METARs :
  • 190030Z 06002MPS CAVOK M01/M03 Q1025 R16/090060 NOSIG
  • 190000Z 05001MPS CAVOK M00/M03 Q1025 R16/090060 NOSIG
  • 182330Z 06002MPS CAVOK 00/M03 Q1025 R16/090060 NOSIG
  • 182300Z 05002MPS CAVOK 01/M04 Q1025 R16/090060 NOSIG
  • 182230Z 04001MPS CAVOK 01/M04 Q1025 R16/090060 NOSIG

TAF TAF UKOO
Valid from the 19 at 00:00 until the 20 at 00:00 UTC


182305Z 1900/1924 06003MPS 2100 BR BKN007 SCT020CB TX06/1911Z TNM01/1902Z
PROB40
TEMPO 1900/1906 0300 FZFG VV002
BECMG 1909/1910 14003MPS 6000 NSW
No reported NOTAMs for that airfield.



MET'MAP, your aeronautical weather chart ! - Copyright ORBIFLY December 2007 - Disclaimer

ORBIFLY MET'MAP TEAM :

Programming & Development : Alexandra Zaïnal
Concept & Development : Baudouin d'Aumeries
Co-Development & Prog : Marc-Olivier Méhu
Technical & hardware support : Manuel Goepfert

Contact : metmap@orbifly.com




SOURCES & CREDITS :

   NOAA